createdAt,value
2022-08-03T00:00:21.522Z,78.59
2022-08-03T00:00:53.802Z,78.15
2022-08-03T00:01:26.203Z,78.20
2022-08-03T00:02:01.980Z,78.31
2022-08-03T00:02:35.973Z,78.24
2022-08-03T00:03:08.203Z,78.09
2022-08-03T00:03:42.951Z,78.05
2022-08-03T00:04:15.169Z,78.13
2022-08-03T00:04:47.727Z,77.89
2022-08-03T00:05:22.705Z,77.81
2022-08-03T00:06:04.120Z,78.01
2022-08-03T00:06:37.480Z,78.20
2022-08-03T00:07:12.213Z,78.27
2022-08-03T00:07:44.418Z,77.88
2022-08-03T00:08:16.626Z,77.87
2022-08-03T00:08:54.343Z,77.94
2022-08-03T00:09:26.579Z,77.53
2022-08-03T00:10:08.821Z,77.58
2022-08-03T00:10:43.585Z,77.91
2022-08-03T00:11:15.776Z,78.09
2022-08-03T00:11:47.895Z,77.74
2022-08-03T00:12:28.379Z,78.14
2022-08-03T00:13:00.581Z,78.15
2022-08-03T00:13:33.040Z,77.72
2022-08-03T00:14:08.054Z,77.94
2022-08-03T00:14:40.238Z,78.15
2022-08-03T00:15:16.315Z,78.09
2022-08-03T00:15:51.686Z,77.73
2022-08-03T00:16:25.349Z,77.63
2022-08-03T00:16:58.226Z,77.96
2022-08-03T00:17:52.989Z,78.05
2022-08-03T00:18:25.152Z,78.07
2022-08-03T00:19:00.741Z,78.28
2022-08-03T00:19:33.218Z,77.87
2022-08-03T00:20:06.306Z,78.04
2022-08-03T00:20:41.486Z,78.16
2022-08-03T00:21:13.610Z,78.38
2022-08-03T00:21:47.927Z,78.06
2022-08-03T00:22:22.626Z,77.94
2022-08-03T00:22:56.290Z,78.13
2022-08-03T00:23:51.887Z,77.99
2022-08-03T00:24:23.891Z,77.79
2022-08-03T00:24:56.098Z,78.22
2022-08-03T00:25:28.344Z,77.87
2022-08-03T00:26:03.338Z,77.95
2022-08-03T00:26:35.441Z,77.72
2022-08-03T00:27:07.590Z,78.29
2022-08-03T00:27:45.148Z,78.01
2022-08-03T00:28:17.378Z,77.96
2022-08-03T00:28:50.617Z,78.31
2022-08-03T00:29:25.756Z,77.74
2022-08-03T00:30:00.288Z,78.26
2022-08-03T00:30:33.557Z,78.22
2022-08-03T00:31:08.285Z,78.22
2022-08-03T00:31:52.554Z,78.37
2022-08-03T00:32:25.119Z,78.30
2022-08-03T00:33:00.171Z,78.25
2022-08-03T00:33:58.663Z,78.34
2022-08-03T00:34:29.895Z,77.96
2022-08-03T00:35:28.036Z,78.18
2022-08-03T00:36:04.614Z,78.32
2022-08-03T00:36:39.322Z,78.02
2022-08-03T00:37:11.490Z,78.14
2022-08-03T00:37:43.635Z,77.86
2022-08-03T00:38:18.451Z,77.80
2022-08-03T00:38:50.775Z,77.76
2022-08-03T00:39:22.899Z,77.91
2022-08-03T00:39:57.689Z,77.46
2022-08-03T00:40:32.787Z,77.71
2022-08-03T00:41:04.964Z,77.62
2022-08-03T00:41:39.677Z,77.39
2022-08-03T00:42:11.816Z,77.56
2022-08-03T00:42:51.863Z,77.76
2022-08-03T00:43:28.879Z,77.85
2022-08-03T00:44:01.066Z,77.71
2022-08-03T00:44:40.148Z,77.45
2022-08-03T00:45:12.405Z,77.70
2022-08-03T00:45:47.339Z,77.63
2022-08-03T00:46:22.667Z,78.09
2022-08-03T00:46:54.862Z,77.54
2022-08-03T00:47:29.546Z,77.86
2022-08-03T00:48:02.878Z,77.83
2022-08-03T00:48:37.594Z,77.39
2022-08-03T00:49:09.893Z,77.91
2022-08-03T00:49:42.974Z,77.35
2022-08-03T00:50:15.821Z,77.46
2022-08-03T00:50:50.841Z,77.64
2022-08-03T00:51:26.494Z,77.34
2022-08-03T00:52:00.901Z,77.46
2022-08-03T00:52:44.483Z,77.54
2022-08-03T00:53:16.709Z,78.00
2022-08-03T00:53:51.284Z,77.67
2022-08-03T00:54:27.517Z,77.78
2022-08-03T00:55:01.091Z,77.67
2022-08-03T00:55:33.390Z,78.15
2022-08-03T00:56:08.514Z,77.64
2022-08-03T00:56:41.670Z,77.81
2022-08-03T00:57:35.969Z,78.00
2022-08-03T00:58:11.930Z,78.10
2022-08-03T00:58:45.839Z,77.91
2022-08-03T00:59:18.942Z,77.71
2022-08-03T00:59:53.783Z,78.01
2022-08-03T01:00:28.009Z,77.99
2022-08-03T01:01:00.353Z,77.94
2022-08-03T01:01:35.220Z,77.63
2022-08-03T01:02:07.562Z,77.99
2022-08-03T01:02:40.235Z,78.09
2022-08-03T01:03:14.942Z,77.64
2022-08-03T01:03:47.571Z,77.56
2022-08-03T01:04:19.749Z,77.99
2022-08-03T01:04:51.910Z,77.69
2022-08-03T01:05:28.471Z,78.00
2022-08-03T01:06:12.162Z,77.69
2022-08-03T01:06:50.601Z,77.67
2022-08-03T01:07:35.549Z,77.92
2022-08-03T01:08:20.664Z,78.27
2022-08-03T01:09:04.643Z,78.19
2022-08-03T01:09:46.550Z,78.23
2022-08-03T01:10:31.687Z,78.17
2022-08-03T01:11:10.497Z,78.21
2022-08-03T01:12:00.010Z,77.85
2022-08-03T01:12:41.554Z,77.87
2022-08-03T01:14:01.226Z,77.71
2022-08-03T01:14:26.286Z,78.35
2022-08-03T01:15:06.373Z,77.77
2022-08-03T01:15:44.764Z,77.90
2022-08-03T01:16:36.529Z,77.85
2022-08-03T01:17:15.182Z,77.76
2022-08-03T01:17:54.097Z,77.72
2022-08-03T01:18:39.150Z,77.83
2022-08-03T01:19:32.555Z,78.15
2022-08-03T01:20:09.780Z,77.71
2022-08-03T01:20:50.118Z,77.89
2022-08-03T01:21:27.003Z,78.20
2022-08-03T01:22:17.318Z,77.93
2022-08-03T01:23:09.291Z,77.74
2022-08-03T01:23:59.894Z,77.69
2022-08-03T01:24:44.212Z,77.78
2022-08-03T01:25:28.745Z,78.29
2022-08-03T01:26:13.635Z,77.84
2022-08-03T01:27:06.963Z,77.80
2022-08-03T01:27:51.855Z,77.63
2022-08-03T01:28:45.806Z,77.89
2022-08-03T01:29:53.202Z,77.95
2022-08-03T01:30:30.317Z,78.36
2022-08-03T01:31:09.979Z,78.33
2022-08-03T01:32:58.900Z,77.94
2022-08-03T01:33:00.030Z,78.38
2022-08-03T01:33:39.539Z,78.58
2022-08-03T01:34:18.882Z,78.11
2022-08-03T01:34:54.491Z,78.49
2022-08-03T01:35:38.428Z,78.47
2022-08-03T01:36:16.197Z,78.44
2022-08-03T01:36:52.879Z,78.41
2022-08-03T01:37:32.992Z,78.00
2022-08-03T01:38:10.278Z,78.07
2022-08-03T01:38:47.711Z,77.91
2022-08-03T01:39:21.516Z,78.04
2022-08-03T01:39:58.434Z,78.05
2022-08-03T01:40:37.219Z,77.69
2022-08-03T01:41:14.006Z,78.24
2022-08-03T01:41:49.619Z,77.75
2022-08-03T01:42:25.951Z,77.69
2022-08-03T01:43:00.306Z,77.63
2022-08-03T01:44:27.852Z,77.55
2022-08-03T01:44:30.920Z,77.79
2022-08-03T01:45:07.724Z,77.99
2022-08-03T01:45:40.559Z,77.75
2022-08-03T01:46:16.412Z,77.50
2022-08-03T01:46:51.462Z,77.98
2022-08-03T01:47:25.881Z,77.77
2022-08-03T01:48:01.780Z,77.60
2022-08-03T01:48:36.599Z,77.60
2022-08-03T01:49:12.113Z,77.62
2022-08-03T01:49:45.777Z,77.92
2022-08-03T01:50:25.399Z,77.78
2022-08-03T01:50:58.283Z,77.77
2022-08-03T01:51:57.680Z,77.74
2022-08-03T01:52:28.154Z,77.40
2022-08-03T01:53:00.774Z,77.35
2022-08-03T01:53:35.753Z,77.17
2022-08-03T01:54:13.241Z,77.40
2022-08-03T01:54:48.922Z,77.71
2022-08-03T01:55:23.946Z,77.63
2022-08-03T01:56:00.504Z,77.68
2022-08-03T01:56:33.616Z,77.64
2022-08-03T01:57:07.268Z,77.37
2022-08-03T01:58:05.411Z,77.49
2022-08-03T01:58:40.969Z,77.35
2022-08-03T01:59:19.564Z,77.65
2022-08-03T01:59:54.131Z,77.18
2022-08-03T02:00:29.669Z,77.33
2022-08-03T02:01:06.433Z,77.00
2022-08-03T02:02:28.415Z,77.06
2022-08-03T02:02:34.770Z,77.14
2022-08-03T02:03:10.720Z,77.19
2022-08-03T02:04:00.826Z,76.99
2022-08-03T02:04:33.970Z,77.08
2022-08-03T02:05:12.904Z,77.38
2022-08-03T02:05:46.442Z,77.17
2022-08-03T02:06:41.007Z,76.97
2022-08-03T02:07:18.147Z,77.49
2022-08-03T02:07:51.452Z,77.46
2022-08-03T02:08:25.867Z,77.38
2022-08-03T02:09:03.299Z,77.25
2022-08-03T02:09:39.158Z,77.17
2022-08-03T02:10:17.006Z,77.44
2022-08-03T02:11:07.599Z,77.34
2022-08-03T02:11:43.663Z,77.54
2022-08-03T02:12:16.728Z,77.29
2022-08-03T02:12:51.240Z,77.55
2022-08-03T02:13:29.731Z,77.19
2022-08-03T02:14:05.506Z,77.54
2022-08-03T02:14:39.600Z,77.24
2022-08-03T02:15:15.309Z,77.63
2022-08-03T02:15:50.546Z,77.53
2022-08-03T02:16:24.777Z,77.39
2022-08-03T02:17:00.855Z,77.48
2022-08-03T02:17:39.000Z,77.36
2022-08-03T02:18:13.460Z,77.51
2022-08-03T02:18:50.954Z,77.51
2022-08-03T02:19:25.308Z,77.91
2022-08-03T02:20:00.365Z,77.70
2022-08-03T02:20:37.756Z,77.38
2022-08-03T02:21:12.257Z,77.17
2022-08-03T02:22:08.663Z,77.23
2022-08-03T02:22:42.067Z,77.41
2022-08-03T02:23:15.931Z,77.51
2022-08-03T02:23:50.742Z,77.55
2022-08-03T02:24:22.880Z,76.93
2022-08-03T02:24:55.111Z,77.16
2022-08-03T02:25:31.103Z,77.25
2022-08-03T02:26:06.506Z,77.18
2022-08-03T02:26:41.183Z,76.75
2022-08-03T02:27:21.463Z,76.82
2022-08-03T02:27:55.791Z,76.95
2022-08-03T02:28:33.000Z,77.43
2022-08-03T02:29:19.044Z,76.96
2022-08-03T02:29:56.624Z,77.19
2022-08-03T02:30:33.609Z,77.25
2022-08-03T02:31:16.839Z,77.07
2022-08-03T02:31:50.911Z,76.89
2022-08-03T02:32:32.453Z,77.19
2022-08-03T02:33:06.368Z,77.38
2022-08-03T02:33:44.210Z,76.88
2022-08-03T02:34:21.501Z,77.21
2022-08-03T02:34:56.675Z,77.29
2022-08-03T02:35:33.532Z,77.51
2022-08-03T02:36:08.222Z,77.19
2022-08-03T02:36:42.614Z,77.36
2022-08-03T02:37:20.945Z,77.70
2022-08-03T02:37:59.965Z,77.35
2022-08-03T02:38:34.452Z,77.50
2022-08-03T02:39:12.779Z,77.16
2022-08-03T02:39:47.248Z,77.67
2022-08-03T02:40:23.562Z,77.31
2022-08-03T02:41:00.698Z,77.37
2022-08-03T02:41:37.590Z,77.08
2022-08-03T02:42:14.595Z,77.62
2022-08-03T02:42:52.294Z,77.34
2022-08-03T02:43:25.606Z,77.50
2022-08-03T02:44:06.436Z,77.57
2022-08-03T02:44:41.683Z,77.30
2022-08-03T02:45:19.765Z,77.52
2022-08-03T02:45:53.819Z,77.24
2022-08-03T02:46:32.646Z,77.51
2022-08-03T02:47:10.809Z,77.69
2022-08-03T02:47:54.579Z,77.60
2022-08-03T02:48:33.420Z,77.85
2022-08-03T02:49:42.138Z,77.66
2022-08-03T02:50:01.892Z,77.60
2022-08-03T02:50:37.759Z,77.36
2022-08-03T02:51:10.808Z,77.52
2022-08-03T02:51:45.347Z,77.38
2022-08-03T02:52:20.305Z,77.43
2022-08-03T02:52:55.767Z,76.98
2022-08-03T02:53:29.282Z,76.87
2022-08-03T02:54:03.137Z,76.98
2022-08-03T02:54:36.471Z,77.19
2022-08-03T02:55:14.395Z,77.14
2022-08-03T02:55:47.486Z,77.14
2022-08-03T02:56:19.970Z,76.78
2022-08-03T02:56:57.049Z,77.21
2022-08-03T02:57:31.805Z,76.79
2022-08-03T02:58:05.086Z,76.76
2022-08-03T02:58:41.421Z,76.96
2022-08-03T02:59:15.138Z,76.59
2022-08-03T02:59:48.325Z,76.98
2022-08-03T03:00:28.250Z,76.92
2022-08-03T03:01:04.298Z,76.85
2022-08-03T03:01:40.251Z,76.35
2022-08-03T03:02:17.557Z,76.46
2022-08-03T03:02:51.259Z,76.58
2022-08-03T03:03:23.931Z,76.35
2022-08-03T03:04:02.973Z,76.57
2022-08-03T03:04:36.203Z,76.42
2022-08-03T03:05:55.047Z,76.32
2022-08-03T03:06:06.808Z,76.45
2022-08-03T03:06:40.352Z,76.43
2022-08-03T03:07:13.951Z,76.38
2022-08-03T03:07:52.898Z,76.55
2022-08-03T03:08:28.746Z,76.78
2022-08-03T03:09:02.077Z,76.54
2022-08-03T03:09:41.606Z,76.79
2022-08-03T03:10:15.371Z,76.52
2022-08-03T03:10:48.739Z,76.59
2022-08-03T03:11:31.341Z,76.72
2022-08-03T03:12:04.713Z,76.81
2022-08-03T03:12:38.838Z,76.78
2022-08-03T03:13:14.752Z,76.69
2022-08-03T03:13:49.063Z,76.59
2022-08-03T03:14:33.812Z,76.70
2022-08-03T03:15:09.620Z,76.62
2022-08-03T03:15:43.692Z,76.62
2022-08-03T03:16:17.477Z,76.80
2022-08-03T03:16:57.818Z,76.82
2022-08-03T03:17:31.068Z,76.84
2022-08-03T03:18:04.389Z,76.20
2022-08-03T03:18:40.740Z,76.43
2022-08-03T03:19:15.997Z,76.84
2022-08-03T03:19:52.711Z,76.38
2022-08-03T03:20:28.943Z,76.47
2022-08-03T03:21:07.298Z,76.39
2022-08-03T03:21:40.159Z,76.59
2022-08-03T03:22:13.399Z,76.59
2022-08-03T03:22:51.752Z,76.61
2022-08-03T03:23:27.041Z,76.50
2022-08-03T03:24:00.016Z,76.56
2022-08-03T03:24:35.568Z,76.61
2022-08-03T03:25:09.158Z,76.13
2022-08-03T03:25:41.903Z,76.01
2022-08-03T03:26:19.554Z,76.38
2022-08-03T03:26:51.936Z,75.88
2022-08-03T03:27:24.635Z,75.87
2022-08-03T03:28:04.060Z,76.07
2022-08-03T03:28:38.961Z,76.27
2022-08-03T03:29:11.437Z,75.91
2022-08-03T03:29:46.764Z,75.82
2022-08-03T03:30:19.034Z,75.92
2022-08-03T03:30:52.695Z,76.29
2022-08-03T03:31:28.053Z,75.91
2022-08-03T03:32:02.998Z,75.52
2022-08-03T03:32:41.756Z,75.68
2022-08-03T03:33:14.148Z,75.73
2022-08-03T03:33:49.393Z,76.24
2022-08-03T03:34:21.749Z,75.72
2022-08-03T03:34:56.222Z,75.84
2022-08-03T03:35:31.414Z,75.68
2022-08-03T03:36:13.712Z,76.18
2022-08-03T03:36:45.917Z,76.08
2022-08-03T03:37:18.082Z,75.87
2022-08-03T03:37:52.866Z,76.01
2022-08-03T03:38:25.060Z,76.22
2022-08-03T03:38:57.807Z,76.25
2022-08-03T03:39:32.752Z,76.18
2022-08-03T03:40:06.497Z,75.88
2022-08-03T03:40:39.400Z,75.85
2022-08-03T03:41:14.570Z,76.01
2022-08-03T03:41:46.850Z,75.72
2022-08-03T03:42:19.262Z,75.94
2022-08-03T03:42:51.593Z,75.46
2022-08-03T03:43:27.166Z,75.87
2022-08-03T03:43:59.611Z,75.91
2022-08-03T03:44:32.168Z,75.57
2022-08-03T03:45:04.684Z,75.69
2022-08-03T03:45:39.721Z,75.35
2022-08-03T03:46:13.522Z,75.28
2022-08-03T03:46:48.467Z,75.42
2022-08-03T03:47:32.708Z,75.16
2022-08-03T03:48:09.379Z,74.99
2022-08-03T03:48:41.806Z,75.53
2022-08-03T03:49:14.295Z,75.48
2022-08-03T03:49:49.552Z,75.26
2022-08-03T03:50:24.937Z,74.89
2022-08-03T03:50:58.070Z,75.15
2022-08-03T03:51:33.576Z,75.08
2022-08-03T03:52:06.557Z,75.28
2022-08-03T03:52:38.860Z,75.09
2022-08-03T03:53:12.624Z,74.90
2022-08-03T03:53:58.668Z,74.94
2022-08-03T03:54:40.773Z,75.18
2022-08-03T03:55:16.694Z,74.93
2022-08-03T03:55:59.388Z,75.13
2022-08-03T03:56:35.182Z,75.51
2022-08-03T03:57:10.480Z,75.31
2022-08-03T03:57:46.559Z,75.03
2022-08-03T03:58:19.020Z,75.03
2022-08-03T03:58:53.744Z,75.11
2022-08-03T03:59:25.923Z,74.77
2022-08-03T03:59:58.287Z,74.69
2022-08-03T04:00:33.465Z,74.62
2022-08-03T04:01:06.063Z,74.54
2022-08-03T04:01:39.031Z,74.42
2022-08-03T04:02:14.980Z,74.48
2022-08-03T04:02:49.900Z,74.30
2022-08-03T04:03:22.125Z,74.50
2022-08-03T04:03:56.902Z,74.46
2022-08-03T04:04:44.060Z,74.92
2022-08-03T04:05:31.369Z,75.07
2022-08-03T04:06:18.741Z,75.09
2022-08-03T04:07:06.318Z,74.77
2022-08-03T04:08:01.726Z,75.16
2022-08-03T04:08:49.463Z,74.84
2022-08-03T04:09:36.924Z,75.18
2022-08-03T04:10:29.228Z,75.02
2022-08-03T04:11:11.999Z,75.19
2022-08-03T04:11:48.199Z,75.08
2022-08-03T04:12:27.423Z,75.27
2022-08-03T04:13:02.570Z,75.43
2022-08-03T04:13:39.210Z,74.91
2022-08-03T04:14:17.685Z,74.88
2022-08-03T04:14:52.108Z,75.07
2022-08-03T04:15:27.812Z,75.13
2022-08-03T04:16:04.123Z,74.81
2022-08-03T04:16:43.450Z,74.81
2022-08-03T04:17:19.876Z,75.30
2022-08-03T04:17:59.264Z,75.29
2022-08-03T04:18:34.988Z,75.04
2022-08-03T04:19:13.304Z,74.97
2022-08-03T04:19:50.778Z,75.04
2022-08-03T04:20:24.319Z,74.95
2022-08-03T04:21:01.928Z,74.98
2022-08-03T04:21:35.783Z,74.64
2022-08-03T04:22:20.436Z,74.86
2022-08-03T04:22:54.658Z,74.86
2022-08-03T04:23:28.164Z,75.00
2022-08-03T04:24:07.666Z,74.36
2022-08-03T04:24:43.568Z,74.76
2022-08-03T04:25:19.508Z,74.68
2022-08-03T04:25:56.251Z,74.72
2022-08-03T04:26:32.045Z,74.77
2022-08-03T04:27:10.106Z,74.24
2022-08-03T04:27:44.883Z,74.13
2022-08-03T04:28:39.915Z,74.29
2022-08-03T04:29:16.145Z,74.18
2022-08-03T04:29:51.735Z,74.00
2022-08-03T04:30:25.535Z,74.21
2022-08-03T04:31:00.923Z,74.17
2022-08-03T04:31:34.138Z,74.04
2022-08-03T04:32:08.081Z,73.95
2022-08-03T04:32:45.970Z,74.20
2022-08-03T04:33:23.567Z,74.01
2022-08-03T04:34:02.734Z,74.47
2022-08-03T04:34:38.683Z,74.42
2022-08-03T04:35:10.928Z,73.90
2022-08-03T04:36:01.514Z,74.07
2022-08-03T04:36:46.243Z,73.89
2022-08-03T04:37:26.730Z,73.77
2022-08-03T04:38:06.289Z,73.86
2022-08-03T04:38:44.477Z,74.36
2022-08-03T04:39:20.078Z,74.00
2022-08-03T04:40:00.196Z,74.07
2022-08-03T04:40:35.125Z,73.93
2022-08-03T04:41:08.239Z,73.46
2022-08-03T04:42:07.931Z,73.41
2022-08-03T04:42:39.105Z,73.57
2022-08-03T04:43:15.269Z,73.33
2022-08-03T04:43:52.002Z,73.59
2022-08-03T04:44:28.309Z,73.42
2022-08-03T04:45:04.523Z,73.42
2022-08-03T04:45:40.735Z,73.62
2022-08-03T04:46:13.955Z,72.98
2022-08-03T04:46:50.562Z,72.88
2022-08-03T04:47:25.686Z,72.76
2022-08-03T04:47:58.465Z,73.11
2022-08-03T04:48:37.104Z,72.83
2022-08-03T04:49:10.327Z,72.68
2022-08-03T04:49:46.829Z,73.10
2022-08-03T04:50:21.742Z,73.10
2022-08-03T04:51:11.004Z,72.56
2022-08-03T04:51:46.185Z,72.88
2022-08-03T04:52:18.805Z,72.38
2022-08-03T04:52:50.956Z,72.34
2022-08-03T04:53:25.878Z,72.54
2022-08-03T04:53:58.177Z,72.44
2022-08-03T04:54:30.985Z,72.65
2022-08-03T04:55:05.799Z,72.39
2022-08-03T04:55:38.153Z,72.68
2022-08-03T04:56:10.645Z,72.77
2022-08-03T04:56:45.946Z,72.26
2022-08-03T04:57:23.296Z,72.49
2022-08-03T04:57:55.825Z,72.31
2022-08-03T04:58:30.541Z,72.18
2022-08-03T04:59:03.136Z,72.54
2022-08-03T04:59:39.185Z,72.65
2022-08-03T05:00:14.676Z,72.78
2022-08-03T05:00:51.208Z,72.72
2022-08-03T05:01:26.637Z,72.52
2022-08-03T05:01:58.821Z,73.10
2022-08-03T05:02:32.126Z,72.82
2022-08-03T05:03:20.246Z,72.67
2022-08-03T05:03:59.180Z,72.65
2022-08-03T05:04:34.020Z,72.97
2022-08-03T05:05:07.225Z,72.53
2022-08-03T05:05:50.036Z,72.86
2022-08-03T05:06:25.599Z,72.53
2022-08-03T05:06:57.854Z,72.58
2022-08-03T05:07:35.843Z,72.91
2022-08-03T05:08:11.423Z,72.73
2022-08-03T05:08:46.171Z,72.76
2022-08-03T05:09:45.832Z,72.68
2022-08-03T05:10:16.640Z,72.43
2022-08-03T05:10:49.076Z,72.52
2022-08-03T05:11:21.589Z,72.35
2022-08-03T05:11:56.343Z,72.15
2022-08-03T05:12:32.570Z,72.19
2022-08-03T05:13:05.436Z,72.56
2022-08-03T05:13:40.188Z,72.05
2022-08-03T05:14:12.374Z,72.25
2022-08-03T05:14:44.520Z,72.30
2022-08-03T05:15:19.243Z,71.79
2022-08-03T05:15:51.406Z,72.28
2022-08-03T05:16:26.014Z,71.90
2022-08-03T05:17:00.754Z,72.35
2022-08-03T05:17:34.128Z,72.42
2022-08-03T05:18:09.530Z,72.00
2022-08-03T05:18:47.240Z,72.16
2022-08-03T05:19:22.012Z,71.68
2022-08-03T05:19:54.690Z,71.66
2022-08-03T05:20:29.423Z,71.78
2022-08-03T05:21:01.725Z,71.87
2022-08-03T05:21:52.113Z,71.40
2022-08-03T05:22:27.825Z,71.80
2022-08-03T05:23:01.633Z,71.72
2022-08-03T05:23:36.572Z,71.24
2022-08-03T05:24:08.916Z,71.26
2022-08-03T05:24:41.083Z,71.37
2022-08-03T05:25:19.235Z,71.21
2022-08-03T05:25:52.081Z,71.24
2022-08-03T05:26:24.254Z,71.46
2022-08-03T05:26:58.997Z,71.54
2022-08-03T05:27:31.234Z,71.36
2022-08-03T05:28:03.785Z,71.72
2022-08-03T05:28:38.636Z,71.38
2022-08-03T05:29:10.943Z,71.31
2022-08-03T05:29:43.121Z,71.26
2022-08-03T05:30:30.994Z,71.21
2022-08-03T05:31:06.463Z,71.79
2022-08-03T05:31:41.230Z,71.66
2022-08-03T05:32:13.601Z,71.23
2022-08-03T05:32:45.831Z,71.18
2022-08-03T05:33:20.591Z,71.52
2022-08-03T05:33:53.070Z,71.10
2022-08-03T05:34:30.528Z,71.54
2022-08-03T05:35:55.941Z,71.26
2022-08-03T05:36:03.020Z,71.01
2022-08-03T05:36:36.465Z,71.06
2022-08-03T05:37:09.651Z,70.86
2022-08-03T05:37:54.487Z,70.72
2022-08-03T05:38:28.554Z,70.91
2022-08-03T05:39:08.742Z,70.67
2022-08-03T05:39:40.959Z,70.82
2022-08-03T05:40:13.778Z,70.79
2022-08-03T05:40:57.315Z,70.46
2022-08-03T05:41:40.806Z,70.39
2022-08-03T05:42:18.508Z,70.47
2022-08-03T05:42:50.866Z,70.68
2022-08-03T05:43:23.101Z,70.74
2022-08-03T05:43:58.320Z,70.53
2022-08-03T05:44:31.854Z,70.50
2022-08-03T05:45:13.006Z,70.24
2022-08-03T05:45:48.044Z,70.09
2022-08-03T05:46:40.176Z,70.48
2022-08-03T05:47:14.999Z,70.76
2022-08-03T05:47:48.136Z,70.81
2022-08-03T05:48:20.427Z,70.30
2022-08-03T05:48:55.263Z,70.19
2022-08-03T05:49:30.038Z,70.68
2022-08-03T05:50:02.312Z,70.79
2022-08-03T05:50:42.462Z,70.59
2022-08-03T05:51:15.043Z,70.72
2022-08-03T05:51:47.258Z,70.81
2022-08-03T05:52:34.627Z,70.81
2022-08-03T05:53:07.011Z,70.62
2022-08-03T05:53:39.630Z,70.14
2022-08-03T05:54:14.719Z,70.55
2022-08-03T05:54:56.420Z,70.38
2022-08-03T05:55:29.986Z,70.12
2022-08-03T05:56:14.920Z,70.04
2022-08-03T05:56:48.272Z,70.34
2022-08-03T05:57:20.409Z,69.93
2022-08-03T05:57:56.821Z,70.00
2022-08-03T05:58:30.055Z,70.41
2022-08-03T05:59:22.428Z,70.38
2022-08-03T05:59:58.510Z,70.04
2022-08-03T06:00:31.266Z,70.07
2022-08-03T06:01:03.466Z,70.10
2022-08-03T06:01:38.312Z,69.65
2022-08-03T06:02:10.579Z,69.90
2022-08-03T06:02:43.221Z,69.97
2022-08-03T06:03:18.136Z,69.78
2022-08-03T06:03:53.821Z,70.14
2022-08-03T06:04:26.029Z,70.30
2022-08-03T06:05:03.383Z,69.77
2022-08-03T06:05:36.739Z,70.07
2022-08-03T06:06:18.385Z,69.67
2022-08-03T06:06:51.135Z,69.83
2022-08-03T06:07:23.504Z,70.05
2022-08-03T06:07:58.374Z,69.80
2022-08-03T06:08:30.526Z,69.57
2022-08-03T06:09:02.718Z,69.61
2022-08-03T06:10:35.550Z,70.12
2022-08-03T06:10:36.527Z,69.97
2022-08-03T06:11:13.345Z,69.92
2022-08-03T06:11:45.992Z,69.69
2022-08-03T06:12:18.567Z,69.37
2022-08-03T06:12:53.707Z,69.31
2022-08-03T06:13:25.861Z,69.31
2022-08-03T06:13:58.041Z,69.17
2022-08-03T06:14:32.814Z,69.41
2022-08-03T06:15:06.079Z,69.05
2022-08-03T06:15:40.951Z,68.98
2022-08-03T06:16:15.736Z,68.93
2022-08-03T06:16:47.953Z,69.28
2022-08-03T06:17:20.136Z,69.03
2022-08-03T06:18:01.456Z,68.81
2022-08-03T06:18:34.321Z,69.21
2022-08-03T06:19:09.115Z,68.79
2022-08-03T06:19:41.252Z,69.28
2022-08-03T06:20:17.069Z,68.95
2022-08-03T06:20:52.316Z,68.93
2022-08-03T06:21:24.624Z,69.06
2022-08-03T06:22:02.147Z,69.35
2022-08-03T06:22:35.512Z,69.04
2022-08-03T06:23:07.762Z,69.36
2022-08-03T06:23:54.619Z,69.35
2022-08-03T06:24:27.502Z,68.87
2022-08-03T06:25:04.929Z,68.88
2022-08-03T06:25:43.205Z,69.01
2022-08-03T06:26:15.458Z,68.77
2022-08-03T06:26:47.603Z,69.08
2022-08-03T06:27:31.407Z,68.71
2022-08-03T06:28:14.971Z,68.55
2022-08-03T06:28:59.232Z,69.03
2022-08-03T06:29:31.573Z,68.62
2022-08-03T06:30:04.511Z,68.60
2022-08-03T06:30:39.393Z,68.68
2022-08-03T06:31:11.499Z,68.46
2022-08-03T06:31:43.628Z,68.42
2022-08-03T06:32:18.958Z,68.75
2022-08-03T06:32:52.678Z,68.34
2022-08-03T06:33:26.412Z,68.32
2022-08-03T06:34:32.872Z,68.48
2022-08-03T06:35:09.991Z,68.48
2022-08-03T06:35:47.352Z,68.47
2022-08-03T06:36:19.507Z,69.04
2022-08-03T06:36:52.351Z,69.11
2022-08-03T06:37:27.505Z,68.95
2022-08-03T06:37:59.847Z,69.02
2022-08-03T06:38:32.540Z,69.01
2022-08-03T06:39:08.370Z,68.68
2022-08-03T06:39:40.785Z,68.67
2022-08-03T06:40:21.800Z,68.72
2022-08-03T06:40:57.122Z,69.05
2022-08-03T06:41:29.290Z,69.02
2022-08-03T06:42:05.056Z,69.58
2022-08-03T06:42:38.703Z,69.55
2022-08-03T06:43:12.758Z,69.34
2022-08-03T06:44:02.999Z,69.79
2022-08-03T06:44:38.797Z,69.74
2022-08-03T06:45:12.347Z,69.71
2022-08-03T06:45:47.585Z,69.67
2022-08-03T06:46:20.265Z,69.59
2022-08-03T06:46:53.098Z,69.91
2022-08-03T06:47:27.856Z,69.78
2022-08-03T06:48:05.431Z,69.42
2022-08-03T06:48:37.654Z,69.85
2022-08-03T06:49:13.013Z,69.87
2022-08-03T06:50:12.615Z,69.31
2022-08-03T06:50:42.144Z,69.64
2022-08-03T06:51:17.486Z,69.43
2022-08-03T06:52:06.041Z,69.76
2022-08-03T06:52:41.598Z,69.40
2022-08-03T06:53:19.719Z,69.70
2022-08-03T06:53:53.665Z,69.24
2022-08-03T06:54:28.428Z,69.38
2022-08-03T06:55:00.586Z,69.39
2022-08-03T06:55:35.837Z,69.20
2022-08-03T06:56:14.693Z,69.32
2022-08-03T06:56:46.813Z,69.27
2022-08-03T06:57:21.605Z,69.26
2022-08-03T06:57:54.410Z,69.04
2022-08-03T06:58:32.019Z,69.05
2022-08-03T06:59:06.819Z,68.94
2022-08-03T07:00:09.049Z,68.63
2022-08-03T07:00:34.002Z,68.58
2022-08-03T07:01:06.412Z,68.80
2022-08-03T07:01:38.628Z,68.60
2022-08-03T07:02:18.933Z,68.58
2022-08-03T07:02:56.114Z,68.20
2022-08-03T07:03:32.785Z,68.07
2022-08-03T07:04:06.054Z,68.24
2022-08-03T07:04:38.388Z,68.03
2022-08-03T07:05:14.176Z,67.88
2022-08-03T07:05:46.999Z,67.93
2022-08-03T07:06:21.869Z,68.11
2022-08-03T07:06:57.086Z,67.93
2022-08-03T07:07:29.341Z,67.75
2022-08-03T07:08:04.042Z,67.94
2022-08-03T07:08:36.219Z,67.99
2022-08-03T07:09:08.453Z,67.72
2022-08-03T07:09:43.278Z,68.14
2022-08-03T07:10:32.367Z,68.05
2022-08-03T07:11:04.597Z,68.22
2022-08-03T07:11:37.014Z,67.96
2022-08-03T07:12:12.000Z,68.41
2022-08-03T07:12:56.125Z,68.34
2022-08-03T07:13:31.755Z,68.93
2022-08-03T07:14:04.436Z,68.90
2022-08-03T07:14:36.687Z,68.80
2022-08-03T07:15:20.658Z,68.93
2022-08-03T07:16:05.621Z,69.03
2022-08-03T07:16:40.392Z,68.99
2022-08-03T07:17:12.783Z,69.19
2022-08-03T07:17:47.540Z,69.04
2022-08-03T07:18:28.284Z,69.36
2022-08-03T07:19:04.830Z,68.91
2022-08-03T07:19:36.974Z,69.51
2022-08-03T07:20:09.746Z,69.33
2022-08-03T07:20:44.927Z,69.40
2022-08-03T07:21:17.380Z,69.48
2022-08-03T07:21:53.551Z,69.86
2022-08-03T07:22:28.685Z,69.83
2022-08-03T07:23:01.044Z,69.46
2022-08-03T07:23:35.830Z,69.70
2022-08-03T07:24:08.034Z,69.31
2022-08-03T07:24:41.998Z,69.84
2022-08-03T07:25:16.747Z,69.85
2022-08-03T07:25:49.035Z,69.88
2022-08-03T07:26:21.462Z,69.77
2022-08-03T07:26:56.190Z,69.59
2022-08-03T07:27:29.440Z,69.63
2022-08-03T07:28:04.355Z,69.13
2022-08-03T07:28:36.579Z,69.44
2022-08-03T07:29:15.003Z,69.12
2022-08-03T07:29:47.628Z,69.06
2022-08-03T07:30:22.451Z,68.72
2022-08-03T07:30:54.834Z,68.91
2022-08-03T07:31:27.275Z,68.51
2022-08-03T07:32:09.447Z,68.62
2022-08-03T07:32:50.260Z,68.39
2022-08-03T07:33:25.608Z,68.57
2022-08-03T07:33:57.789Z,68.68
2022-08-03T07:34:30.440Z,68.37
2022-08-03T07:35:08.707Z,68.73
2022-08-03T07:35:49.096Z,68.78
2022-08-03T07:36:24.963Z,68.32
2022-08-03T07:36:59.768Z,68.36
2022-08-03T07:37:34.597Z,68.39
2022-08-03T07:38:06.934Z,68.19
2022-08-03T07:38:41.676Z,67.89
2022-08-03T07:39:16.681Z,68.09
2022-08-03T07:39:52.877Z,67.80
2022-08-03T07:40:30.609Z,67.69
2022-08-03T07:41:04.258Z,67.55
2022-08-03T07:41:39.036Z,67.93
2022-08-03T07:42:14.920Z,68.19
2022-08-03T07:42:52.134Z,67.80
2022-08-03T07:43:25.777Z,67.98
2022-08-03T07:43:57.927Z,67.43
2022-08-03T07:44:32.739Z,67.75
2022-08-03T07:45:05.766Z,68.04
2022-08-03T07:45:40.534Z,68.05
2022-08-03T07:46:12.787Z,67.87
2022-08-03T07:46:44.981Z,68.13
2022-08-03T07:47:22.327Z,68.22
2022-08-03T07:47:55.091Z,67.72
2022-08-03T07:48:27.422Z,68.18
2022-08-03T07:49:02.274Z,67.72
2022-08-03T07:49:34.686Z,67.62
2022-08-03T07:50:11.307Z,68.01
2022-08-03T07:50:43.563Z,67.66
2022-08-03T07:51:18.314Z,68.02